sensor_id;sensor_type;location;lat;lon;timestamp;P1;durP1;ratioP1;P2;durP2;ratioP2
19087;SDS011;9676;50.916;13.352;2022-08-16T00:01:39;13.40;;;12.10;;
19087;SDS011;9676;50.916;13.352;2022-08-16T00:04:31;13.23;;;11.90;;
19087;SDS011;9676;50.916;13.352;2022-08-16T00:07:21;13.20;;;11.90;;
19087;SDS011;9676;50.916;13.352;2022-08-16T00:10:12;13.10;;;11.73;;
19087;SDS011;9676;50.916;13.352;2022-08-16T00:13:07;12.90;;;11.70;;
19087;SDS011;9676;50.916;13.352;2022-08-16T00:15:58;13.53;;;12.07;;
19087;SDS011;9676;50.916;13.352;2022-08-16T00:19:08;12.70;;;11.40;;
19087;SDS011;9676;50.916;13.352;2022-08-16T00:22:00;12.97;;;11.70;;
19087;SDS011;9676;50.916;13.352;2022-08-16T00:25:00;12.90;;;11.70;;
19087;SDS011;9676;50.916;13.352;2022-08-16T00:27:51;12.70;;;11.50;;
19087;SDS011;9676;50.916;13.352;2022-08-16T00:30:41;13.53;;;12.17;;
19087;SDS011;9676;50.916;13.352;2022-08-16T00:33:33;12.70;;;11.50;;
19087;SDS011;9676;50.916;13.352;2022-08-16T00:36:23;13.17;;;11.87;;
19087;SDS011;9676;50.916;13.352;2022-08-16T00:39:12;13.07;;;11.77;;
19087;SDS011;9676;50.916;13.352;2022-08-16T00:42:03;12.70;;;11.50;;
19087;SDS011;9676;50.916;13.352;2022-08-16T00:44:59;13.10;;;11.70;;
19087;SDS011;9676;50.916;13.352;2022-08-16T00:47:54;13.00;;;11.70;;
19087;SDS011;9676;50.916;13.352;2022-08-16T00:50:44;13.37;;;12.00;;
19087;SDS011;9676;50.916;13.352;2022-08-16T00:53:41;12.70;;;11.47;;
19087;SDS011;9676;50.916;13.352;2022-08-16T00:56:33;12.73;;;11.47;;
19087;SDS011;9676;50.916;13.352;2022-08-16T00:59:45;12.80;;;11.60;;
19087;SDS011;9676;50.916;13.352;2022-08-16T01:02:46;12.30;;;11.10;;
19087;SDS011;9676;50.916;13.352;2022-08-16T01:05:36;12.70;;;11.40;;
19087;SDS011;9676;50.916;13.352;2022-08-16T01:08:26;13.00;;;11.70;;
19087;SDS011;9676;50.916;13.352;2022-08-16T01:11:23;12.73;;;11.50;;
19087;SDS011;9676;50.916;13.352;2022-08-16T01:14:17;13.50;;;11.80;;
19087;SDS011;9676;50.916;13.352;2022-08-16T01:17:17;13.10;;;11.80;;
19087;SDS011;9676;50.916;13.352;2022-08-16T01:20:12;13.07;;;11.77;;
19087;SDS011;9676;50.916;13.352;2022-08-16T01:23:19;13.13;;;11.83;;
19087;SDS011;9676;50.916;13.352;2022-08-16T01:26:36;12.40;;;11.20;;
19087;SDS011;9676;50.916;13.352;2022-08-16T01:29:31;12.50;;;11.30;;
19087;SDS011;9676;50.916;13.352;2022-08-16T01:32:45;13.37;;;12.07;;
19087;SDS011;9676;50.916;13.352;2022-08-16T01:35:59;13.10;;;11.80;;
19087;SDS011;9676;50.916;13.352;2022-08-16T01:39:07;13.50;;;12.20;;
19087;SDS011;9676;50.916;13.352;2022-08-16T01:42:02;12.83;;;11.63;;
19087;SDS011;9676;50.916;13.352;2022-08-16T01:44:59;13.20;;;12.00;;
19087;SDS011;9676;50.916;13.352;2022-08-16T01:47:50;12.93;;;11.73;;
19087;SDS011;9676;50.916;13.352;2022-08-16T01:50:41;12.33;;;11.20;;
19087;SDS011;9676;50.916;13.352;2022-08-16T01:53:52;12.77;;;11.47;;
19087;SDS011;9676;50.916;13.352;2022-08-16T01:56:50;12.70;;;11.50;;
19087;SDS011;9676;50.916;13.352;2022-08-16T01:59:44;12.23;;;11.13;;
19087;SDS011;9676;50.916;13.352;2022-08-16T02:02:41;12.87;;;11.57;;
19087;SDS011;9676;50.916;13.352;2022-08-16T02:05:39;12.90;;;11.60;;
19087;SDS011;9676;50.916;13.352;2022-08-16T02:08:38;13.10;;;11.70;;
19087;SDS011;9676;50.916;13.352;2022-08-16T02:11:28;12.77;;;11.57;;
19087;SDS011;9676;50.916;13.352;2022-08-16T02:14:35;17.00;;;11.73;;
19087;SDS011;9676;50.916;13.352;2022-08-16T02:17:27;12.80;;;11.60;;
19087;SDS011;9676;50.916;13.352;2022-08-16T02:20:16;12.53;;;11.23;;
19087;SDS011;9676;50.916;13.352;2022-08-16T02:23:12;12.63;;;11.43;;
19087;SDS011;9676;50.916;13.352;2022-08-16T02:26:04;12.13;;;10.93;;
19087;SDS011;9676;50.916;13.352;2022-08-16T02:28:54;15.53;;;11.20;;
19087;SDS011;9676;50.916;13.352;2022-08-16T02:31:44;12.30;;;11.10;;
19087;SDS011;9676;50.916;13.352;2022-08-16T02:34:51;12.10;;;11.00;;
19087;SDS011;9676;50.916;13.352;2022-08-16T02:37:43;12.10;;;11.00;;
19087;SDS011;9676;50.916;13.352;2022-08-16T02:40:40;12.27;;;11.07;;
19087;SDS011;9676;50.916;13.352;2022-08-16T02:43:32;12.00;;;10.90;;
19087;SDS011;9676;50.916;13.352;2022-08-16T02:46:26;11.93;;;10.80;;
19087;SDS011;9676;50.916;13.352;2022-08-16T02:49:21;12.00;;;10.80;;
19087;SDS011;9676;50.916;13.352;2022-08-16T02:52:33;12.33;;;11.13;;
19087;SDS011;9676;50.916;13.352;2022-08-16T02:55:26;12.07;;;10.97;;
19087;SDS011;9676;50.916;13.352;2022-08-16T02:58:28;12.43;;;11.33;;
19087;SDS011;9676;50.916;13.352;2022-08-16T03:01:21;11.90;;;10.70;;
19087;SDS011;9676;50.916;13.352;2022-08-16T03:04:35;11.90;;;10.80;;
19087;SDS011;9676;50.916;13.352;2022-08-16T03:07:42;11.90;;;10.80;;
19087;SDS011;9676;50.916;13.352;2022-08-16T03:10:37;11.50;;;10.40;;
19087;SDS011;9676;50.916;13.352;2022-08-16T03:13:27;11.40;;;10.40;;
19087;SDS011;9676;50.916;13.352;2022-08-16T03:16:27;11.67;;;10.57;;
19087;SDS011;9676;50.916;13.352;2022-08-16T03:19:31;11.30;;;10.30;;
19087;SDS011;9676;50.916;13.352;2022-08-16T03:22:44;11.43;;;10.43;;
19087;SDS011;9676;50.916;13.352;2022-08-16T03:25:35;11.47;;;10.37;;
19087;SDS011;9676;50.916;13.352;2022-08-16T03:28:30;11.20;;;10.20;;
19087;SDS011;9676;50.916;13.352;2022-08-16T03:31:20;11.40;;;10.40;;
19087;SDS011;9676;50.916;13.352;2022-08-16T03:34:10;11.90;;;10.70;;
19087;SDS011;9676;50.916;13.352;2022-08-16T03:37:00;11.13;;;10.13;;
19087;SDS011;9676;50.916;13.352;2022-08-16T03:39:55;11.47;;;10.47;;
19087;SDS011;9676;50.916;13.352;2022-08-16T03:42:50;11.80;;;10.60;;
19087;SDS011;9676;50.916;13.352;2022-08-16T03:46:00;11.20;;;10.20;;
19087;SDS011;9676;50.916;13.352;2022-08-16T03:48:54;11.40;;;10.37;;
19087;SDS011;9676;50.916;13.352;2022-08-16T03:51:43;11.30;;;10.30;;
19087;SDS011;9676;50.916;13.352;2022-08-16T03:54:39;11.37;;;10.27;;
19087;SDS011;9676;50.916;13.352;2022-08-16T03:57:47;11.40;;;10.40;;
19087;SDS011;9676;50.916;13.352;2022-08-16T04:00:42;11.33;;;10.30;;
19087;SDS011;9676;50.916;13.352;2022-08-16T04:03:43;11.20;;;10.10;;
19087;SDS011;9676;50.916;13.352;2022-08-16T04:06:33;11.30;;;10.30;;
19087;SDS011;9676;50.916;13.352;2022-08-16T04:09:22;11.40;;;10.30;;
19087;SDS011;9676;50.916;13.352;2022-08-16T04:12:12;11.30;;;10.30;;
19087;SDS011;9676;50.916;13.352;2022-08-16T04:15:23;11.20;;;10.20;;
19087;SDS011;9676;50.916;13.352;2022-08-16T04:18:41;11.30;;;10.30;;
19087;SDS011;9676;50.916;13.352;2022-08-16T04:21:34;11.20;;;10.20;;
19087;SDS011;9676;50.916;13.352;2022-08-16T04:24:37;10.90;;;9.90;;
19087;SDS011;9676;50.916;13.352;2022-08-16T04:27:27;11.10;;;10.10;;
19087;SDS011;9676;50.916;13.352;2022-08-16T04:30:19;11.57;;;10.47;;
19087;SDS011;9676;50.916;13.352;2022-08-16T04:33:24;11.70;;;10.60;;
19087;SDS011;9676;50.916;13.352;2022-08-16T04:36:17;11.13;;;10.13;;
19087;SDS011;9676;50.916;13.352;2022-08-16T04:39:08;11.10;;;10.10;;
19087;SDS011;9676;50.916;13.352;2022-08-16T04:42:03;11.37;;;10.27;;
19087;SDS011;9676;50.916;13.352;2022-08-16T04:44:58;11.60;;;10.53;;
19087;SDS011;9676;50.916;13.352;2022-08-16T04:47:52;11.10;;;10.10;;
19087;SDS011;9676;50.916;13.352;2022-08-16T04:50:46;11.50;;;10.40;;
19087;SDS011;9676;50.916;13.352;2022-08-16T04:53:39;11.60;;;10.40;;
19087;SDS011;9676;50.916;13.352;2022-08-16T04:56:29;10.87;;;9.87;;
19087;SDS011;9676;50.916;13.352;2022-08-16T04:59:20;11.03;;;9.93;;
19087;SDS011;9676;50.916;13.352;2022-08-16T05:02:14;11.13;;;10.00;;
19087;SDS011;9676;50.916;13.352;2022-08-16T05:05:23;11.10;;;10.10;;
19087;SDS011;9676;50.916;13.352;2022-08-16T05:08:25;10.90;;;9.90;;
19087;SDS011;9676;50.916;13.352;2022-08-16T05:11:37;10.90;;;9.90;;
19087;SDS011;9676;50.916;13.352;2022-08-16T05:14:27;11.00;;;10.00;;
19087;SDS011;9676;50.916;13.352;2022-08-16T05:17:41;12.90;;;11.23;;
19087;SDS011;9676;50.916;13.352;2022-08-16T05:20:33;11.93;;;10.73;;
19087;SDS011;9676;50.916;13.352;2022-08-16T05:23:44;11.20;;;10.20;;
19087;SDS011;9676;50.916;13.352;2022-08-16T05:26:45;11.70;;;10.50;;
19087;SDS011;9676;50.916;13.352;2022-08-16T05:29:38;12.30;;;11.00;;
19087;SDS011;9676;50.916;13.352;2022-08-16T05:32:48;11.20;;;10.10;;
19087;SDS011;9676;50.916;13.352;2022-08-16T05:35:38;11.23;;;10.13;;
19087;SDS011;9676;50.916;13.352;2022-08-16T05:38:35;11.50;;;9.80;;
19087;SDS011;9676;50.916;13.352;2022-08-16T05:41:31;10.10;;;9.20;;
19087;SDS011;9676;50.916;13.352;2022-08-16T05:44:32;10.20;;;9.20;;
19087;SDS011;9676;50.916;13.352;2022-08-16T05:47:22;10.63;;;9.50;;
19087;SDS011;9676;50.916;13.352;2022-08-16T05:50:16;10.03;;;9.03;;
19087;SDS011;9676;50.916;13.352;2022-08-16T05:53:15;9.83;;;8.93;;
19087;SDS011;9676;50.916;13.352;2022-08-16T05:56:28;10.00;;;9.10;;
19087;SDS011;9676;50.916;13.352;2022-08-16T05:59:22;10.07;;;9.07;;
19087;SDS011;9676;50.916;13.352;2022-08-16T06:02:15;10.00;;;9.10;;
19087;SDS011;9676;50.916;13.352;2022-08-16T06:05:06;9.77;;;8.77;;
19087;SDS011;9676;50.916;13.352;2022-08-16T06:08:01;11.90;;;8.77;;
19087;SDS011;9676;50.916;13.352;2022-08-16T06:10:55;9.83;;;9.00;;
19087;SDS011;9676;50.916;13.352;2022-08-16T06:13:57;9.97;;;9.07;;
19087;SDS011;9676;50.916;13.352;2022-08-16T06:16:58;9.60;;;8.80;;
19087;SDS011;9676;50.916;13.352;2022-08-16T06:19:52;9.50;;;8.60;;
19087;SDS011;9676;50.916;13.352;2022-08-16T06:22:43;9.63;;;8.73;;
19087;SDS011;9676;50.916;13.352;2022-08-16T06:25:51;9.20;;;8.47;;
19087;SDS011;9676;50.916;13.352;2022-08-16T06:28:46;10.90;;;9.80;;
19087;SDS011;9676;50.916;13.352;2022-08-16T06:31:53;9.60;;;8.70;;
19087;SDS011;9676;50.916;13.352;2022-08-16T06:34:46;9.48;;;8.68;;
19087;SDS011;9676;50.916;13.352;2022-08-16T06:37:50;9.45;;;8.65;;
19087;SDS011;9676;50.916;13.352;2022-08-16T06:40:44;9.02;;;8.30;;
19087;SDS011;9676;50.916;13.352;2022-08-16T06:43:36;8.88;;;8.18;;
19087;SDS011;9676;50.916;13.352;2022-08-16T06:46:33;9.18;;;8.38;;
19087;SDS011;9676;50.916;13.352;2022-08-16T06:49:30;9.00;;;8.20;;
19087;SDS011;9676;50.916;13.352;2022-08-16T06:52:23;8.95;;;8.23;;
19087;SDS011;9676;50.916;13.352;2022-08-16T06:55:42;9.20;;;8.43;;
19087;SDS011;9676;50.916;13.352;2022-08-16T06:58:34;9.05;;;8.30;;
19087;SDS011;9676;50.916;13.352;2022-08-16T07:01:30;8.85;;;8.15;;
19087;SDS011;9676;50.916;13.352;2022-08-16T07:04:31;9.23;;;8.40;;
19087;SDS011;9676;50.916;13.352;2022-08-16T07:07:40;8.80;;;8.10;;
19087;SDS011;9676;50.916;13.352;2022-08-16T07:10:37;17.38;;;8.00;;
19087;SDS011;9676;50.916;13.352;2022-08-16T07:13:28;8.77;;;8.07;;
19087;SDS011;9676;50.916;13.352;2022-08-16T07:16:38;9.00;;;8.20;;
19087;SDS011;9676;50.916;13.352;2022-08-16T07:19:29;8.63;;;7.93;;
19087;SDS011;9676;50.916;13.352;2022-08-16T07:22:44;20.00;;;15.75;;
19087;SDS011;9676;50.916;13.352;2022-08-16T07:25:51;21.00;;;18.80;;
19087;SDS011;9676;50.916;13.352;2022-08-16T07:28:43;14.98;;;13.57;;
19087;SDS011;9676;50.916;13.352;2022-08-16T07:31:32;11.90;;;10.68;;
19087;SDS011;9676;50.916;13.352;2022-08-16T07:34:28;10.68;;;9.68;;
19087;SDS011;9676;50.916;13.352;2022-08-16T07:37:23;9.68;;;8.77;;
19087;SDS011;9676;50.916;13.352;2022-08-16T07:40:31;9.00;;;8.30;;
19087;SDS011;9676;50.916;13.352;2022-08-16T07:43:41;10.13;;;8.40;;
19087;SDS011;9676;50.916;13.352;2022-08-16T07:46:34;8.40;;;7.80;;
19087;SDS011;9676;50.916;13.352;2022-08-16T07:49:41;8.52;;;7.90;;
19087;SDS011;9676;50.916;13.352;2022-08-16T07:52:40;8.02;;;7.53;;
19087;SDS011;9676;50.916;13.352;2022-08-16T07:55:31;8.20;;;7.70;;
19087;SDS011;9676;50.916;13.352;2022-08-16T07:58:35;8.50;;;7.90;;
19087;SDS011;9676;50.916;13.352;2022-08-16T08:01:30;8.40;;;7.80;;
19087;SDS011;9676;50.916;13.352;2022-08-16T08:04:21;10.45;;;7.97;;
19087;SDS011;9676;50.916;13.352;2022-08-16T08:07:19;8.45;;;7.85;;
19087;SDS011;9676;50.916;13.352;2022-08-16T08:10:14;8.40;;;7.80;;
19087;SDS011;9676;50.916;13.352;2022-08-16T08:13:19;8.40;;;7.75;;
19087;SDS011;9676;50.916;13.352;2022-08-16T08:16:29;8.20;;;7.70;;
19087;SDS011;9676;50.916;13.352;2022-08-16T08:19:22;8.10;;;7.57;;
19087;SDS011;9676;50.916;13.352;2022-08-16T08:22:13;7.80;;;7.30;;
19087;SDS011;9676;50.916;13.352;2022-08-16T08:25:15;7.97;;;7.47;;
19087;SDS011;9676;50.916;13.352;2022-08-16T08:28:05;7.90;;;7.40;;
19087;SDS011;9676;50.916;13.352;2022-08-16T08:31:01;8.23;;;7.72;;
19087;SDS011;9676;50.916;13.352;2022-08-16T08:33:54;8.35;;;7.68;;
19087;SDS011;9676;50.916;13.352;2022-08-16T08:36:46;8.38;;;7.70;;
19087;SDS011;9676;50.916;13.352;2022-08-16T08:39:50;7.75;;;7.32;;
19087;SDS011;9676;50.916;13.352;2022-08-16T08:42:42;8.20;;;7.70;;
19087;SDS011;9676;50.916;13.352;2022-08-16T08:45:35;7.97;;;7.47;;
19087;SDS011;9676;50.916;13.352;2022-08-16T08:48:36;8.40;;;7.70;;
19087;SDS011;9676;50.916;13.352;2022-08-16T08:51:33;8.55;;;7.55;;
19087;SDS011;9676;50.916;13.352;2022-08-16T08:54:30;7.82;;;7.32;;
19087;SDS011;9676;50.916;13.352;2022-08-16T08:57:20;8.13;;;7.43;;
19087;SDS011;9676;50.916;13.352;2022-08-16T09:00:34;7.80;;;7.28;;
19087;SDS011;9676;50.916;13.352;2022-08-16T09:03:40;8.30;;;7.70;;
19087;SDS011;9676;50.916;13.352;2022-08-16T09:06:31;7.85;;;7.07;;
19087;SDS011;9676;50.916;13.352;2022-08-16T09:09:29;8.02;;;7.50;;
19087;SDS011;9676;50.916;13.352;2022-08-16T09:12:25;7.57;;;7.18;;
19087;SDS011;9676;50.916;13.352;2022-08-16T09:15:27;7.32;;;6.82;;
19087;SDS011;9676;50.916;13.352;2022-08-16T09:18:19;6.93;;;6.32;;
19087;SDS011;9676;50.916;13.352;2022-08-16T09:21:15;7.43;;;6.93;;
19087;SDS011;9676;50.916;13.352;2022-08-16T09:24:17;7.55;;;7.10;;
19087;SDS011;9676;50.916;13.352;2022-08-16T09:27:27;7.50;;;7.07;;
19087;SDS011;9676;50.916;13.352;2022-08-16T09:30:37;7.45;;;7.05;;
19087;SDS011;9676;50.916;13.352;2022-08-16T09:33:31;7.53;;;7.13;;
19087;SDS011;9676;50.916;13.352;2022-08-16T09:36:27;7.93;;;7.43;;
19087;SDS011;9676;50.916;13.352;2022-08-16T09:39:20;7.82;;;7.28;;
19087;SDS011;9676;50.916;13.352;2022-08-16T09:42:10;8.10;;;7.55;;
19087;SDS011;9676;50.916;13.352;2022-08-16T09:45:05;7.55;;;6.95;;
19087;SDS011;9676;50.916;13.352;2022-08-16T09:48:04;7.85;;;7.35;;
19087;SDS011;9676;50.916;13.352;2022-08-16T09:50:55;8.07;;;7.57;;
19087;SDS011;9676;50.916;13.352;2022-08-16T09:53:49;7.63;;;7.22;;
19087;SDS011;9676;50.916;13.352;2022-08-16T09:56:41;7.40;;;7.00;;
19087;SDS011;9676;50.916;13.352;2022-08-16T09:59:39;7.63;;;7.03;;
19087;SDS011;9676;50.916;13.352;2022-08-16T10:02:29;8.50;;;7.90;;
19087;SDS011;9676;50.916;13.352;2022-08-16T10:05:30;8.10;;;7.70;;
19087;SDS011;9676;50.916;13.352;2022-08-16T10:08:23;7.78;;;7.18;;
19087;SDS011;9676;50.916;13.352;2022-08-16T10:11:15;7.55;;;7.10;;
19087;SDS011;9676;50.916;13.352;2022-08-16T10:14:37;7.55;;;7.15;;
19087;SDS011;9676;50.916;13.352;2022-08-16T10:17:32;7.53;;;7.13;;
19087;SDS011;9676;50.916;13.352;2022-08-16T10:20:30;7.35;;;6.85;;
19087;SDS011;9676;50.916;13.352;2022-08-16T10:23:25;7.45;;;6.95;;
19087;SDS011;9676;50.916;13.352;2022-08-16T10:26:17;7.20;;;6.80;;
19087;SDS011;9676;50.916;13.352;2022-08-16T10:29:27;8.20;;;7.70;;
19087;SDS011;9676;50.916;13.352;2022-08-16T10:32:36;8.65;;;7.80;;
19087;SDS011;9676;50.916;13.352;2022-08-16T10:35:26;7.85;;;7.30;;
19087;SDS011;9676;50.916;13.352;2022-08-16T10:38:19;8.35;;;7.85;;
19087;SDS011;9676;50.916;13.352;2022-08-16T10:41:13;7.97;;;7.38;;
19087;SDS011;9676;50.916;13.352;2022-08-16T10:44:08;7.70;;;7.20;;
19087;SDS011;9676;50.916;13.352;2022-08-16T10:47:04;7.35;;;6.85;;
19087;SDS011;9676;50.916;13.352;2022-08-16T10:49:54;7.18;;;6.68;;
19087;SDS011;9676;50.916;13.352;2022-08-16T10:52:45;7.20;;;6.70;;
19087;SDS011;9676;50.916;13.352;2022-08-16T10:55:38;7.32;;;6.90;;
19087;SDS011;9676;50.916;13.352;2022-08-16T10:58:31;7.22;;;6.82;;
19087;SDS011;9676;50.916;13.352;2022-08-16T11:01:23;6.82;;;6.32;;
19087;SDS011;9676;50.916;13.352;2022-08-16T11:04:30;7.18;;;6.78;;
19087;SDS011;9676;50.916;13.352;2022-08-16T11:07:40;6.68;;;6.18;;
19087;SDS011;9676;50.916;13.352;2022-08-16T11:10:40;12.30;;;10.70;;
19087;SDS011;9676;50.916;13.352;2022-08-16T11:13:51;9.50;;;8.70;;
19087;SDS011;9676;50.916;13.352;2022-08-16T11:16:47;8.50;;;7.90;;
19087;SDS011;9676;50.916;13.352;2022-08-16T11:19:57;8.60;;;8.00;;
19087;SDS011;9676;50.916;13.352;2022-08-16T11:23:06;8.57;;;7.95;;
19087;SDS011;9676;50.916;13.352;2022-08-16T11:25:57;8.40;;;7.90;;
19087;SDS011;9676;50.916;13.352;2022-08-16T11:29:06;8.60;;;8.00;;
19087;SDS011;9676;50.916;13.352;2022-08-16T11:32:02;8.70;;;8.00;;
19087;SDS011;9676;50.916;13.352;2022-08-16T11:34:53;8.98;;;8.18;;
19087;SDS011;9676;50.916;13.352;2022-08-16T11:38:04;8.55;;;7.88;;
19087;SDS011;9676;50.916;13.352;2022-08-16T11:41:17;9.18;;;8.48;;
19087;SDS011;9676;50.916;13.352;2022-08-16T11:44:07;8.50;;;7.90;;
19087;SDS011;9676;50.916;13.352;2022-08-16T11:47:07;9.15;;;8.35;;
19087;SDS011;9676;50.916;13.352;2022-08-16T11:49:57;8.75;;;8.02;;
19087;SDS011;9676;50.916;13.352;2022-08-16T11:52:47;9.52;;;8.68;;
19087;SDS011;9676;50.916;13.352;2022-08-16T11:55:38;9.30;;;8.50;;
19087;SDS011;9676;50.916;13.352;2022-08-16T11:58:30;9.10;;;8.32;;
19087;SDS011;9676;50.916;13.352;2022-08-16T12:01:21;9.13;;;8.33;;
19087;SDS011;9676;50.916;13.352;2022-08-16T12:04:32;9.23;;;8.40;;
19087;SDS011;9676;50.916;13.352;2022-08-16T12:07:23;9.30;;;8.50;;
19087;SDS011;9676;50.916;13.352;2022-08-16T12:10:15;9.30;;;8.50;;
19087;SDS011;9676;50.916;13.352;2022-08-16T12:13:07;9.50;;;8.70;;
19087;SDS011;9676;50.916;13.352;2022-08-16T12:15:58;10.30;;;8.90;;
19087;SDS011;9676;50.916;13.352;2022-08-16T12:18:47;9.60;;;8.47;;
19087;SDS011;9676;50.916;13.352;2022-08-16T12:21:38;9.57;;;8.77;;
19087;SDS011;9676;50.916;13.352;2022-08-16T12:24:46;16.57;;;9.40;;
19087;SDS011;9676;50.916;13.352;2022-08-16T12:27:39;9.30;;;8.50;;
19087;SDS011;9676;50.916;13.352;2022-08-16T12:30:35;9.20;;;8.40;;
19087;SDS011;9676;50.916;13.352;2022-08-16T12:33:27;9.30;;;8.40;;
19087;SDS011;9676;50.916;13.352;2022-08-16T12:36:29;8.83;;;8.13;;
19087;SDS011;9676;50.916;13.352;2022-08-16T12:39:19;9.80;;;8.80;;
19087;SDS011;9676;50.916;13.352;2022-08-16T12:42:15;9.30;;;8.50;;
19087;SDS011;9676;50.916;13.352;2022-08-16T12:45:08;9.93;;;9.03;;
19087;SDS011;9676;50.916;13.352;2022-08-16T12:48:01;9.53;;;8.63;;
19087;SDS011;9676;50.916;13.352;2022-08-16T12:51:21;9.57;;;8.70;;
19087;SDS011;9676;50.916;13.352;2022-08-16T12:54:39;9.70;;;8.90;;
19087;SDS011;9676;50.916;13.352;2022-08-16T12:57:29;9.57;;;8.67;;
19087;SDS011;9676;50.916;13.352;2022-08-16T13:00:24;9.40;;;8.60;;
19087;SDS011;9676;50.916;13.352;2022-08-16T13:03:20;9.20;;;8.40;;
19087;SDS011;9676;50.916;13.352;2022-08-16T13:06:10;9.53;;;8.73;;
19087;SDS011;9676;50.916;13.352;2022-08-16T13:09:06;9.63;;;8.83;;
19087;SDS011;9676;50.916;13.352;2022-08-16T13:12:11;9.20;;;8.30;;
19087;SDS011;9676;50.916;13.352;2022-08-16T13:15:08;9.60;;;8.80;;
19087;SDS011;9676;50.916;13.352;2022-08-16T13:18:01;9.50;;;8.70;;
19087;SDS011;9676;50.916;13.352;2022-08-16T13:21:11;9.73;;;8.83;;
19087;SDS011;9676;50.916;13.352;2022-08-16T13:24:01;9.67;;;8.80;;
19087;SDS011;9676;50.916;13.352;2022-08-16T13:26:52;9.80;;;8.90;;
19087;SDS011;9676;50.916;13.352;2022-08-16T13:29:42;9.67;;;8.87;;
19087;SDS011;9676;50.916;13.352;2022-08-16T13:32:43;9.53;;;8.63;;
19087;SDS011;9676;50.916;13.352;2022-08-16T13:35:38;9.53;;;8.67;;
19087;SDS011;9676;50.916;13.352;2022-08-16T13:38:29;9.80;;;8.90;;
19087;SDS011;9676;50.916;13.352;2022-08-16T13:41:24;9.93;;;8.93;;
19087;SDS011;9676;50.916;13.352;2022-08-16T13:44:16;9.77;;;8.87;;
19087;SDS011;9676;50.916;13.352;2022-08-16T13:47:08;9.93;;;9.03;;
19087;SDS011;9676;50.916;13.352;2022-08-16T13:49:59;9.97;;;9.07;;
19087;SDS011;9676;50.916;13.352;2022-08-16T13:52:49;10.20;;;9.30;;
19087;SDS011;9676;50.916;13.352;2022-08-16T13:55:41;10.20;;;9.30;;
19087;SDS011;9676;50.916;13.352;2022-08-16T13:58:34;9.80;;;8.93;;
19087;SDS011;9676;50.916;13.352;2022-08-16T14:01:41;9.60;;;8.80;;
19087;SDS011;9676;50.916;13.352;2022-08-16T14:04:33;10.20;;;9.20;;
19087;SDS011;9676;50.916;13.352;2022-08-16T14:07:26;9.80;;;8.87;;
19087;SDS011;9676;50.916;13.352;2022-08-16T14:10:16;10.63;;;9.63;;
19087;SDS011;9676;50.916;13.352;2022-08-16T14:13:07;11.80;;;10.70;;
19087;SDS011;9676;50.916;13.352;2022-08-16T14:16:08;11.10;;;10.00;;
19087;SDS011;9676;50.916;13.352;2022-08-16T14:19:11;10.87;;;9.67;;
19087;SDS011;9676;50.916;13.352;2022-08-16T14:22:13;10.10;;;9.20;;
19087;SDS011;9676;50.916;13.352;2022-08-16T14:25:24;11.10;;;10.07;;
19087;SDS011;9676;50.916;13.352;2022-08-16T14:28:14;11.10;;;10.00;;
19087;SDS011;9676;50.916;13.352;2022-08-16T14:31:09;11.23;;;10.13;;
19087;SDS011;9676;50.916;13.352;2022-08-16T14:34:01;13.73;;;9.97;;
19087;SDS011;9676;50.916;13.352;2022-08-16T14:36:51;16.33;;;10.00;;
19087;SDS011;9676;50.916;13.352;2022-08-16T14:39:42;10.33;;;9.43;;
19087;SDS011;9676;50.916;13.352;2022-08-16T14:42:35;13.10;;;9.50;;
19087;SDS011;9676;50.916;13.352;2022-08-16T14:45:26;10.33;;;9.30;;
19087;SDS011;9676;50.916;13.352;2022-08-16T14:48:16;11.87;;;10.77;;
19087;SDS011;9676;50.916;13.352;2022-08-16T14:51:12;11.73;;;10.60;;
19087;SDS011;9676;50.916;13.352;2022-08-16T14:54:02;10.80;;;9.80;;
19087;SDS011;9676;50.916;13.352;2022-08-16T14:56:59;10.43;;;9.43;;
19087;SDS011;9676;50.916;13.352;2022-08-16T14:59:50;10.20;;;9.30;;
19087;SDS011;9676;50.916;13.352;2022-08-16T15:02:49;9.83;;;9.00;;
19087;SDS011;9676;50.916;13.352;2022-08-16T15:05:40;9.67;;;8.77;;
19087;SDS011;9676;50.916;13.352;2022-08-16T15:08:30;10.00;;;9.00;;
19087;SDS011;9676;50.916;13.352;2022-08-16T15:11:23;10.03;;;9.10;;
19087;SDS011;9676;50.916;13.352;2022-08-16T15:14:15;10.03;;;9.13;;
19087;SDS011;9676;50.916;13.352;2022-08-16T15:17:05;10.63;;;9.27;;
19087;SDS011;9676;50.916;13.352;2022-08-16T15:19:56;9.97;;;9.03;;
19087;SDS011;9676;50.916;13.352;2022-08-16T15:22:47;9.80;;;8.90;;
19087;SDS011;9676;50.916;13.352;2022-08-16T15:25:43;10.10;;;9.10;;
19087;SDS011;9676;50.916;13.352;2022-08-16T15:28:50;10.80;;;9.30;;
19087;SDS011;9676;50.916;13.352;2022-08-16T15:31:41;9.90;;;9.00;;
19087;SDS011;9676;50.916;13.352;2022-08-16T15:34:34;10.63;;;9.63;;
19087;SDS011;9676;50.916;13.352;2022-08-16T15:37:27;10.10;;;9.20;;
19087;SDS011;9676;50.916;13.352;2022-08-16T15:40:30;18.70;;;10.00;;
19087;SDS011;9676;50.916;13.352;2022-08-16T15:43:22;10.27;;;9.13;;
19087;SDS011;9676;50.916;13.352;2022-08-16T15:46:25;14.00;;;12.60;;
19087;SDS011;9676;50.916;13.352;2022-08-16T15:49:37;11.97;;;10.87;;
19087;SDS011;9676;50.916;13.352;2022-08-16T15:52:34;11.13;;;10.03;;
19087;SDS011;9676;50.916;13.352;2022-08-16T15:55:25;11.70;;;9.50;;
19087;SDS011;9676;50.916;13.352;2022-08-16T15:58:21;10.20;;;9.20;;
19087;SDS011;9676;50.916;13.352;2022-08-16T16:01:25;10.03;;;9.13;;
19087;SDS011;9676;50.916;13.352;2022-08-16T16:04:18;9.73;;;8.83;;
19087;SDS011;9676;50.916;13.352;2022-08-16T16:07:10;10.77;;;9.00;;
19087;SDS011;9676;50.916;13.352;2022-08-16T16:10:00;10.10;;;9.10;;
19087;SDS011;9676;50.916;13.352;2022-08-16T16:13:00;10.10;;;9.10;;
19087;SDS011;9676;50.916;13.352;2022-08-16T16:15:55;10.00;;;9.10;;
19087;SDS011;9676;50.916;13.352;2022-08-16T16:18:49;10.43;;;9.43;;
19087;SDS011;9676;50.916;13.352;2022-08-16T16:21:39;10.40;;;9.40;;
19087;SDS011;9676;50.916;13.352;2022-08-16T16:24:30;10.70;;;9.33;;
19087;SDS011;9676;50.916;13.352;2022-08-16T16:27:22;10.30;;;9.20;;
19087;SDS011;9676;50.916;13.352;2022-08-16T16:30:12;10.30;;;9.30;;
19087;SDS011;9676;50.916;13.352;2022-08-16T16:33:23;10.60;;;9.50;;
19087;SDS011;9676;50.916;13.352;2022-08-16T16:36:16;10.70;;;9.70;;
19087;SDS011;9676;50.916;13.352;2022-08-16T16:39:15;10.27;;;9.27;;
19087;SDS011;9676;50.916;13.352;2022-08-16T16:42:06;9.93;;;9.00;;
19087;SDS011;9676;50.916;13.352;2022-08-16T16:45:16;10.30;;;9.30;;
19087;SDS011;9676;50.916;13.352;2022-08-16T16:48:07;10.27;;;9.33;;
19087;SDS011;9676;50.916;13.352;2022-08-16T16:50:59;10.10;;;9.10;;
19087;SDS011;9676;50.916;13.352;2022-08-16T16:53:54;9.90;;;9.00;;
19087;SDS011;9676;50.916;13.352;2022-08-16T16:56:46;10.00;;;9.10;;
19087;SDS011;9676;50.916;13.352;2022-08-16T16:59:38;12.23;;;9.67;;
19087;SDS011;9676;50.916;13.352;2022-08-16T17:02:31;10.30;;;9.30;;
19087;SDS011;9676;50.916;13.352;2022-08-16T17:05:35;9.90;;;9.00;;
19087;SDS011;9676;50.916;13.352;2022-08-16T17:08:25;10.27;;;9.30;;
19087;SDS011;9676;50.916;13.352;2022-08-16T17:11:15;10.37;;;9.37;;
19087;SDS011;9676;50.916;13.352;2022-08-16T17:14:05;10.30;;;9.40;;
19087;SDS011;9676;50.916;13.352;2022-08-16T17:17:18;10.90;;;9.40;;
19087;SDS011;9676;50.916;13.352;2022-08-16T17:20:08;10.50;;;9.50;;
19087;SDS011;9676;50.916;13.352;2022-08-16T17:22:59;10.30;;;9.30;;
19087;SDS011;9676;50.916;13.352;2022-08-16T17:25:50;10.20;;;9.20;;
19087;SDS011;9676;50.916;13.352;2022-08-16T17:28:40;11.33;;;9.50;;
19087;SDS011;9676;50.916;13.352;2022-08-16T17:31:48;9.80;;;8.90;;